Corsicana, TX

3:58 PM CDT on October 01, 2014 (GMT -0500)
Carol Ave | Change Station
CLOSE
Current Station
Personal Weather Station
Location: Corsicana, TX
Elevation: 460 ft
Nearby Weather Stations

Elev 460 ft 32.12 °N, 96.49 °W | Updated 9 minutes ago

Partly Cloudy
Partly Cloudy
93.2 °F
Feels Like 101 °F
N
6.0
Wind Variable Wind from East
Gusts 11.0 mph

Today
High -- | Low -- °F
--% Chance of Precip.
Yesterday
High -- | Low -- °F
Precip. -- in
7:19 AM 7:10 PM
Waxing Crescent, 51% visible
Pressure 29.77 in
Visibility 10.0 miles
Clouds Few 5500 ft
Mostly Cloudy 10000 ft
Heat Index 101 °F
Dew Point 71 °F
Humidity 49%
Rainfall 0.00 in
Snow Depth Not available.
UV 3 out of 12
Pollen 9.20 out of 12
Air Quality Not available.
Flu Activity Not available.
METAR KCRS 302053Z AUTO 15015G19KT 10SM FEW055 BKN100 33/18 A2979 RMK AO2 SLP081 T03280183 56028

More Conditions Fewer Conditions

Pressure 29.77 in
Visibility 10.0 miles
Clouds Few 5500 ft
Mostly Cloudy 10000 ft
Heat Index 101 °F
Dew Point 71 °F
Humidity 49%
Rainfall 0.00 in
Snow Depth Not available.
UV 3 out of 12
Pollen 9.20 out of 12
Air Quality Not available.
Flu Activity Not available.
METAR KCRS 302053Z AUTO 15015G19KT 10SM FEW055 BKN100 33/18 A2979 RMK AO2 SLP081 T03280183 56028

More Conditions Fewer Conditions

10-Day Weather Forecast

Almanac

Astronomy

Oct. 01, 2014 Rise Set
Actual Time 7:19 AM CDT 7:10 PM CDT
Civil Twilight 6:55 AM CDT 7:35 PM CDT
Nautical Twilight 6:27 AM CDT 8:03 PM CDT
Astronomical Twilight 5:58 AM CDT 8:31 PM CDT
Moon 2:07 PM CDT No Moon Set
Length of Visible Light 12h 39m
Length of Day
11h 50m
Tomorrow will be 1m 57s shorter.
Waxing Crescent, 51% of the Moon is Illuminated
Today
Waxing Crescent
Oct 8
Full
Oct 15
Last Quarter
Oct 23
New
Oct 30
First Quarter

Today's Extremes

State Highs State Lows

Community

WunderPhotos

Upload Photos

1,758,043 photos uploaded!

WunderBlogs® & News

By Dr. Jeff Masters
Director of Meteorology, Weather Underground
By Kari Strenfel
Meteorologist, Weather Underground
By Christopher C. Burt
Weather Historian, Weather Underground
October 1, 2014
October 1, 2014
October 1, 2014

Nearby

Snow Depth

Station Depth Elevation
No new snow has been reported.

Earthquake Activity

City Distance Mag. Time & Date
No recent earthquake activity has been reported nearby.
Minimum magnitude displayed is 2.5.

Coastal Water Temperatures

Place Temperature
No Stations Reporting

Nearby Weather Stations